createdAt,value
2016-09-02T00:00:26.869Z,50.38
2016-09-02T00:01:01.168Z,50.26
2016-09-02T00:01:35.460Z,49.97
2016-09-02T00:02:09.760Z,50.18
2016-09-02T00:02:44.081Z,50.45
2016-09-02T00:03:18.370Z,50.18
2016-09-02T00:03:52.660Z,50.16
2016-09-02T00:04:26.972Z,50.16
2016-09-02T00:05:01.258Z,50.74
2016-09-02T00:05:35.577Z,50.28
2016-09-02T00:06:09.884Z,50.48
2016-09-02T00:06:44.172Z,50.07
2016-09-02T00:07:18.469Z,50.38
2016-09-02T00:07:52.768Z,49.99
2016-09-02T00:08:27.059Z,50.45
2016-09-02T00:09:01.370Z,50.18
2016-09-02T00:09:35.672Z,50.35
2016-09-02T00:10:10.049Z,50.26
2016-09-02T00:10:44.336Z,50.26
2016-09-02T00:11:18.620Z,50.26
2016-09-02T00:11:52.921Z,50.26
2016-09-02T00:12:27.225Z,50.18
2016-09-02T00:13:01.513Z,49.97
2016-09-02T00:13:35.796Z,50.26
2016-09-02T00:14:10.106Z,50.26
2016-09-02T00:14:44.405Z,50.16
2016-09-02T00:15:18.690Z,50.16
2016-09-02T00:15:53.232Z,50.16
2016-09-02T00:16:27.545Z,49.97
2016-09-02T00:17:01.827Z,50.65
2016-09-02T00:17:36.109Z,50.57
2016-09-02T00:18:10.403Z,50.55
2016-09-02T00:18:44.704Z,50.45
2016-09-02T00:19:18.983Z,50.26
2016-09-02T00:19:53.289Z,50.65
2016-09-02T00:20:27.578Z,50.45
2016-09-02T00:21:01.892Z,50.45
2016-09-02T00:21:36.184Z,50.26
2016-09-02T00:22:10.477Z,50.07
2016-09-02T00:22:44.779Z,50.16
2016-09-02T00:23:19.079Z,49.87
2016-09-02T00:23:53.382Z,50.45
2016-09-02T00:24:27.677Z,50.35
2016-09-02T00:25:01.973Z,50.45
2016-09-02T00:25:36.279Z,50.45
2016-09-02T00:26:10.562Z,50.16
2016-09-02T00:26:44.843Z,50.35
2016-09-02T00:27:19.148Z,50.07
2016-09-02T00:27:53.449Z,50.07
2016-09-02T00:28:27.738Z,50.26
2016-09-02T00:29:02.030Z,50.45
2016-09-02T00:29:36.332Z,50.16
2016-09-02T00:30:10.634Z,50.65
2016-09-02T00:30:45.439Z,50.55
2016-09-02T00:31:19.731Z,50.55
2016-09-02T00:31:54.036Z,50.55
2016-09-02T00:32:28.326Z,50.65
2016-09-02T00:33:02.628Z,50.45
2016-09-02T00:33:36.915Z,50.55
2016-09-02T00:34:11.221Z,50.45
2016-09-02T00:34:45.518Z,50.55
2016-09-02T00:35:19.794Z,50.65
2016-09-02T00:35:54.096Z,50.65
2016-09-02T00:36:28.412Z,50.45
2016-09-02T00:37:02.739Z,50.45
2016-09-02T00:37:37.049Z,50.55
2016-09-02T00:38:11.361Z,50.55
2016-09-02T00:38:45.658Z,50.35
2016-09-02T00:39:19.954Z,50.35
2016-09-02T00:39:54.249Z,50.35
2016-09-02T00:40:28.548Z,50.35
2016-09-02T00:41:02.885Z,50.55
2016-09-02T00:41:37.171Z,50.55
2016-09-02T00:42:11.450Z,50.35
2016-09-02T00:42:45.738Z,50.45
2016-09-02T00:43:20.017Z,50.45
2016-09-02T00:43:54.314Z,50.55
2016-09-02T00:44:28.608Z,50.26
2016-09-02T00:45:02.922Z,50.65
2016-09-02T00:45:37.663Z,50.45
2016-09-02T00:46:11.951Z,50.55
2016-09-02T00:46:46.235Z,50.35
2016-09-02T00:47:20.531Z,50.55
2016-09-02T00:47:54.833Z,50.55
2016-09-02T00:48:29.122Z,50.45
2016-09-02T00:49:03.414Z,50.65
2016-09-02T00:49:37.709Z,50.84
2016-09-02T00:50:11.995Z,50.65
2016-09-02T00:50:46.289Z,50.65
2016-09-02T00:51:20.581Z,50.84
2016-09-02T00:51:54.889Z,50.65
2016-09-02T00:52:29.196Z,50.35
2016-09-02T00:53:03.496Z,50.55
2016-09-02T00:53:37.802Z,50.35
2016-09-02T00:54:12.110Z,50.55
2016-09-02T00:54:46.410Z,50.35
2016-09-02T00:55:20.877Z,50.55
2016-09-02T00:55:55.175Z,50.35
2016-09-02T00:56:29.472Z,50.74
2016-09-02T00:57:03.752Z,50.35
2016-09-02T00:57:38.057Z,50.74
2016-09-02T00:58:12.368Z,50.35
2016-09-02T00:58:46.670Z,50.74
2016-09-02T00:59:20.946Z,50.35
2016-09-02T00:59:55.252Z,50.74
2016-09-02T01:00:29.551Z,50.65
2016-09-02T01:01:03.888Z,50.45
2016-09-02T01:01:38.194Z,50.84
2016-09-02T01:02:12.501Z,50.45
2016-09-02T01:02:46.794Z,50.84
2016-09-02T01:03:21.091Z,50.84
2016-09-02T01:03:55.368Z,50.81
2016-09-02T01:04:29.669Z,50.45
2016-09-02T01:05:03.950Z,50.93
2016-09-02T01:05:38.242Z,50.23
2016-09-02T01:06:12.537Z,50.93
2016-09-02T01:06:46.832Z,50.74
2016-09-02T01:07:21.127Z,50.93
2016-09-02T01:07:55.438Z,50.91
2016-09-02T01:08:29.771Z,50.91
2016-09-02T01:09:04.074Z,50.93
2016-09-02T01:09:38.382Z,50.74
2016-09-02T01:10:12.677Z,50.74
2016-09-02T01:10:46.965Z,50.93
2016-09-02T01:11:21.257Z,50.26
2016-09-02T01:11:55.560Z,50.74
2016-09-02T01:12:29.856Z,50.81
2016-09-02T01:13:04.153Z,50.71
2016-09-02T01:13:38.446Z,50.13
2016-09-02T01:14:12.749Z,50.91
2016-09-02T01:14:47.054Z,50.74
2016-09-02T01:15:21.360Z,50.84
2016-09-02T01:15:55.684Z,50.81
2016-09-02T01:16:29.999Z,51.01
2016-09-02T01:17:04.312Z,50.84
2016-09-02T01:17:38.606Z,50.81
2016-09-02T01:18:12.910Z,50.84
2016-09-02T01:18:47.222Z,51.01
2016-09-02T01:19:21.526Z,51.01
2016-09-02T01:19:55.791Z,50.71
2016-09-02T01:20:30.099Z,50.91
2016-09-02T01:21:04.395Z,50.71
2016-09-02T01:21:38.697Z,50.71
2016-09-02T01:22:13.001Z,50.62
2016-09-02T01:22:47.303Z,51.2
2016-09-02T01:23:21.601Z,50.81
2016-09-02T01:23:55.895Z,50.81
2016-09-02T01:24:30.197Z,50.81
2016-09-02T01:25:04.490Z,50.62
2016-09-02T01:25:38.790Z,51.2
2016-09-02T01:26:13.085Z,51.39
2016-09-02T01:26:47.386Z,50.71
2016-09-02T01:27:21.670Z,50.71
2016-09-02T01:27:55.968Z,51.29
2016-09-02T01:28:30.264Z,50.62
2016-09-02T01:29:04.572Z,50.71
2016-09-02T01:29:38.892Z,51.29
2016-09-02T01:30:13.214Z,51.29
2016-09-02T01:30:47.518Z,50.71
2016-09-02T01:31:21.819Z,50.71
2016-09-02T01:31:56.113Z,50.52
2016-09-02T01:32:30.418Z,50.52
2016-09-02T01:33:04.717Z,51.29
2016-09-02T01:33:39.017Z,50.62
2016-09-02T01:34:13.323Z,51.29
2016-09-02T01:34:47.614Z,50.62
2016-09-02T01:35:21.905Z,50.62
2016-09-02T01:35:56.204Z,50.62
2016-09-02T01:36:30.516Z,51.29
2016-09-02T01:37:04.819Z,50.52
2016-09-02T01:37:39.124Z,51.2
2016-09-02T01:38:13.419Z,50.52
2016-09-02T01:38:47.707Z,50.52
2016-09-02T01:39:21.981Z,51.29
2016-09-02T01:39:56.287Z,50.52
2016-09-02T01:40:30.571Z,50.43
2016-09-02T01:41:04.861Z,50.52
2016-09-02T01:41:39.154Z,51.2
2016-09-02T01:42:13.445Z,50.52
2016-09-02T01:42:47.752Z,50.52
2016-09-02T01:43:22.074Z,51.2
2016-09-02T01:43:56.380Z,50.43
2016-09-02T01:44:30.677Z,50.62
2016-09-02T01:45:04.991Z,51.29
2016-09-02T01:45:39.600Z,50.62
2016-09-02T01:46:13.928Z,51.2
2016-09-02T01:46:48.229Z,50.62
2016-09-02T01:47:22.523Z,51.2
2016-09-02T01:47:56.804Z,50.52
2016-09-02T01:48:31.109Z,50.62
2016-09-02T01:49:05.415Z,50.62
2016-09-02T01:49:39.700Z,50.71
2016-09-02T01:50:14.014Z,51.2
2016-09-02T01:50:48.310Z,50.62
2016-09-02T01:51:22.599Z,51.1
2016-09-02T01:51:56.909Z,51.01
2016-09-02T01:52:31.193Z,50.62
2016-09-02T01:53:05.486Z,51.1
2016-09-02T01:53:39.779Z,50.71
2016-09-02T01:54:14.074Z,50.71
2016-09-02T01:54:48.363Z,50.62
2016-09-02T01:55:23.043Z,50.62
2016-09-02T01:55:57.340Z,50.62
2016-09-02T01:56:31.624Z,51.01
2016-09-02T01:57:05.905Z,50.62
2016-09-02T01:57:40.211Z,50.62
2016-09-02T01:58:14.500Z,51.01
2016-09-02T01:58:48.794Z,50.71
2016-09-02T01:59:23.088Z,50.71
2016-09-02T01:59:57.395Z,50.71
2016-09-02T02:00:31.695Z,50.71
2016-09-02T02:01:05.987Z,50.71
2016-09-02T02:01:40.275Z,51.01
2016-09-02T02:02:14.565Z,50.91
2016-09-02T02:02:48.852Z,50.81
2016-09-02T02:03:23.139Z,51.1
2016-09-02T02:03:57.445Z,50.62
2016-09-02T02:04:31.770Z,51.01
2016-09-02T02:05:06.247Z,51.01
2016-09-02T02:05:40.546Z,51.01
2016-09-02T02:06:14.864Z,51.01
2016-09-02T02:06:49.159Z,51.01
2016-09-02T02:07:23.476Z,51.01
2016-09-02T02:07:57.763Z,50.91
2016-09-02T02:08:32.082Z,51.59
2016-09-02T02:09:06.375Z,50.91
2016-09-02T02:09:40.664Z,50.91
2016-09-02T02:10:14.976Z,51.01
2016-09-02T02:10:49.371Z,51.1
2016-09-02T02:11:23.683Z,50.91
2016-09-02T02:11:57.960Z,51.39
2016-09-02T02:12:33.287Z,50.81
2016-09-02T02:13:08.485Z,50.81
2016-09-02T02:13:42.785Z,50.81
2016-09-02T02:14:17.086Z,50.81
2016-09-02T02:14:51.384Z,50.91
2016-09-02T02:15:25.670Z,50.91
2016-09-02T02:15:59.968Z,51.1
2016-09-02T02:16:34.251Z,51.2
2016-09-02T02:17:08.563Z,51.46
2016-09-02T02:17:42.881Z,50.91
2016-09-02T02:18:17.183Z,51.39
2016-09-02T02:18:51.475Z,51.49
2016-09-02T02:19:25.780Z,51.49
2016-09-02T02:20:00.073Z,51.2
2016-09-02T02:20:34.363Z,50.98
2016-09-02T02:21:08.674Z,51.39
2016-09-02T02:21:43.024Z,51.27
2016-09-02T02:22:17.330Z,51.07
2016-09-02T02:22:51.622Z,51.07
2016-09-02T02:23:25.935Z,51.07
2016-09-02T02:24:00.232Z,51.46
2016-09-02T02:24:34.535Z,51.07
2016-09-02T02:25:08.839Z,51.07
2016-09-02T02:25:43.134Z,51.07
2016-09-02T02:26:17.426Z,50.98
2016-09-02T02:26:51.704Z,51.17
2016-09-02T02:27:26.020Z,51.07
2016-09-02T02:28:00.305Z,51.07
2016-09-02T02:28:34.616Z,51.37
2016-09-02T02:29:08.913Z,51.46
2016-09-02T02:29:43.239Z,51.17
2016-09-02T02:30:17.590Z,51.07
2016-09-02T02:30:51.879Z,51.07
2016-09-02T02:31:26.212Z,51.07
2016-09-02T02:32:00.496Z,51.17
2016-09-02T02:32:34.804Z,51.17
2016-09-02T02:33:09.103Z,51.27
2016-09-02T02:33:43.382Z,51.07
2016-09-02T02:34:17.675Z,51.37
2016-09-02T02:34:51.981Z,51.37
2016-09-02T02:35:26.537Z,51.17
2016-09-02T02:36:00.840Z,51.07
2016-09-02T02:36:35.124Z,51.37
2016-09-02T02:37:09.424Z,51.07
2016-09-02T02:37:43.734Z,50.98
2016-09-02T02:38:18.022Z,51.37
2016-09-02T02:38:52.293Z,51.37
2016-09-02T02:39:26.577Z,51.37
2016-09-02T02:40:00.867Z,51.37
2016-09-02T02:40:35.171Z,51.37
2016-09-02T02:41:09.453Z,51.07
2016-09-02T02:41:43.752Z,51.56
2016-09-02T02:42:18.038Z,51.37
2016-09-02T02:42:52.334Z,51.27
2016-09-02T02:43:26.649Z,51.37
2016-09-02T02:44:00.963Z,51.37
2016-09-02T02:44:35.268Z,51.46
2016-09-02T02:45:09.552Z,51.37
2016-09-02T02:45:43.863Z,51.37
2016-09-02T02:46:18.141Z,51.37
2016-09-02T02:46:52.462Z,51.37
2016-09-02T02:47:26.768Z,51.27
2016-09-02T02:48:01.060Z,51.27
2016-09-02T02:48:35.378Z,51.37
2016-09-02T02:49:09.659Z,51.37
2016-09-02T02:49:43.953Z,51.37
2016-09-02T02:50:18.234Z,51.37
2016-09-02T02:50:52.535Z,51.37
2016-09-02T02:51:26.820Z,51.46
2016-09-02T02:52:01.108Z,51.27
2016-09-02T02:52:35.405Z,51.37
2016-09-02T02:53:09.694Z,51.37
2016-09-02T02:53:43.984Z,51.27
2016-09-02T02:54:18.273Z,51.27
2016-09-02T02:54:52.595Z,51.37
2016-09-02T02:55:26.892Z,51.37
2016-09-02T02:56:01.179Z,51.46
2016-09-02T02:56:35.467Z,51.46
2016-09-02T02:57:09.766Z,51.56
2016-09-02T02:57:44.056Z,51.37
2016-09-02T02:58:18.352Z,51.56
2016-09-02T02:58:52.644Z,51.37
2016-09-02T02:59:26.943Z,51.37
2016-09-02T03:00:01.238Z,51.56
2016-09-02T03:00:35.712Z,51.27
2016-09-02T03:01:10.020Z,51.27
2016-09-02T03:01:44.322Z,51.27
2016-09-02T03:02:18.608Z,51.37
2016-09-02T03:02:52.903Z,51.27
2016-09-02T03:03:27.187Z,51.37
2016-09-02T03:04:01.487Z,51.27
2016-09-02T03:04:35.768Z,51.27
2016-09-02T03:05:10.078Z,50.98
2016-09-02T03:05:44.391Z,51.37
2016-09-02T03:06:18.698Z,51.27
2016-09-02T03:06:52.992Z,51.17
2016-09-02T03:07:27.285Z,50.98
2016-09-02T03:08:01.577Z,51.17
2016-09-02T03:08:35.885Z,50.98
2016-09-02T03:09:10.186Z,51.37
2016-09-02T03:09:44.474Z,51.17
2016-09-02T03:10:18.814Z,50.89
2016-09-02T03:10:53.112Z,51.37
2016-09-02T03:11:27.399Z,51.17
2016-09-02T03:12:01.695Z,50.89
2016-09-02T03:12:35.976Z,50.89
2016-09-02T03:13:10.272Z,51.27
2016-09-02T03:13:44.594Z,51.27
2016-09-02T03:14:18.930Z,50.98
2016-09-02T03:14:53.239Z,51.27
2016-09-02T03:15:27.547Z,51.37
2016-09-02T03:16:01.828Z,51.07
2016-09-02T03:16:36.112Z,51.65
2016-09-02T03:17:10.400Z,51.17
2016-09-02T03:17:44.689Z,51.56
2016-09-02T03:18:18.985Z,50.98
2016-09-02T03:18:53.298Z,51.65
2016-09-02T03:19:27.606Z,51.27
2016-09-02T03:20:01.915Z,51.37
2016-09-02T03:20:36.219Z,51.17
2016-09-02T03:21:10.512Z,51.27
2016-09-02T03:21:44.806Z,51.56
2016-09-02T03:22:19.094Z,51.56
2016-09-02T03:22:53.397Z,51.27
2016-09-02T03:23:27.712Z,51.46
2016-09-02T03:24:02.013Z,51.17
2016-09-02T03:24:36.313Z,51.17
2016-09-02T03:25:10.621Z,51.46
2016-09-02T03:25:45.177Z,51.27
2016-09-02T03:26:19.479Z,51.17
2016-09-02T03:26:53.788Z,51.17
2016-09-02T03:27:28.093Z,51.27
2016-09-02T03:28:02.422Z,51.17
2016-09-02T03:28:36.726Z,51.27
2016-09-02T03:29:11.031Z,51.17
2016-09-02T03:29:45.346Z,51.17
2016-09-02T03:30:19.642Z,51.17
2016-09-02T03:30:53.940Z,51.17
2016-09-02T03:31:28.249Z,51.07
2016-09-02T03:32:02.542Z,51.17
2016-09-02T03:32:36.849Z,51.17
2016-09-02T03:33:11.149Z,51.46
2016-09-02T03:33:45.452Z,51.07
2016-09-02T03:34:19.750Z,51.07
2016-09-02T03:34:54.043Z,51.27
2016-09-02T03:35:28.343Z,51.56
2016-09-02T03:36:02.641Z,51.56
2016-09-02T03:36:36.925Z,51.17
2016-09-02T03:37:11.208Z,51.56
2016-09-02T03:37:45.510Z,51.65
2016-09-02T03:38:19.799Z,51.17
2016-09-02T03:38:54.097Z,51.37
2016-09-02T03:39:28.395Z,51.65
2016-09-02T03:40:02.698Z,51.27
2016-09-02T03:40:37.003Z,51.65
2016-09-02T03:41:11.307Z,51.56
2016-09-02T03:41:45.602Z,51.17
2016-09-02T03:42:19.885Z,51.56
2016-09-02T03:42:54.188Z,51.07
2016-09-02T03:43:28.491Z,51.17
2016-09-02T03:44:02.779Z,51.65
2016-09-02T03:44:37.077Z,51.65
2016-09-02T03:45:11.369Z,51.65
2016-09-02T03:45:45.663Z,51.17
2016-09-02T03:46:19.944Z,51.17
2016-09-02T03:46:54.241Z,51.27
2016-09-02T03:47:28.537Z,51.17
2016-09-02T03:48:02.834Z,51.56
2016-09-02T03:48:37.151Z,51.27
2016-09-02T03:49:11.480Z,51.46
2016-09-02T03:49:45.791Z,51.46
2016-09-02T03:50:20.080Z,51.27
2016-09-02T03:50:54.435Z,51.56
2016-09-02T03:51:28.763Z,51.37
2016-09-02T03:52:03.064Z,51.27
2016-09-02T03:52:37.358Z,51.27
2016-09-02T03:53:11.655Z,51.85
2016-09-02T03:53:45.958Z,51.37
2016-09-02T03:54:20.268Z,51.34
2016-09-02T03:54:54.561Z,51.44
2016-09-02T03:55:28.863Z,51.65
2016-09-02T03:56:03.183Z,51.75
2016-09-02T03:56:37.472Z,51.92
2016-09-02T03:57:11.785Z,51.44
2016-09-02T03:57:46.084Z,51.46
2016-09-02T03:58:20.398Z,51.46
2016-09-02T03:58:54.701Z,51.34
2016-09-02T03:59:29.003Z,51.85
2016-09-02T04:00:03.307Z,51.85
2016-09-02T04:00:37.605Z,51.46
2016-09-02T04:01:11.912Z,51.34
2016-09-02T04:01:46.218Z,51.46
2016-09-02T04:02:20.518Z,51.37
2016-09-02T04:02:54.803Z,51.34
2016-09-02T04:03:29.117Z,51.53
2016-09-02T04:04:03.424Z,51.46
2016-09-02T04:04:38.897Z,51.34
2016-09-02T04:05:13.191Z,51.44
2016-09-02T04:05:47.487Z,51.65
2016-09-02T04:06:21.791Z,51.44
2016-09-02T04:06:56.079Z,51.82
2016-09-02T04:07:30.380Z,51.75
2016-09-02T04:08:04.687Z,51.92
2016-09-02T04:08:38.977Z,51.73
2016-09-02T04:09:13.301Z,51.34
2016-09-02T04:09:47.603Z,51.34
2016-09-02T04:10:21.910Z,51.53
2016-09-02T04:10:56.209Z,51.44
2016-09-02T04:11:30.500Z,51.73
2016-09-02T04:12:04.805Z,51.44
2016-09-02T04:12:39.109Z,51.34
2016-09-02T04:13:13.390Z,51.25
2016-09-02T04:13:47.669Z,51.44
2016-09-02T04:14:21.959Z,51.34
2016-09-02T04:14:56.244Z,51.82
2016-09-02T04:15:30.569Z,51.82
2016-09-02T04:16:04.860Z,51.44
2016-09-02T04:16:39.177Z,51.53
2016-09-02T04:17:13.494Z,51.44
2016-09-02T04:17:47.791Z,51.63
2016-09-02T04:18:22.083Z,51.82
2016-09-02T04:18:56.374Z,51.44
2016-09-02T04:19:30.675Z,51.44
2016-09-02T04:20:05.083Z,51.95
2016-09-02T04:20:39.831Z,52.01
2016-09-02T04:21:14.137Z,51.82
2016-09-02T04:21:48.425Z,51.44
2016-09-02T04:22:22.729Z,52.01
2016-09-02T04:22:57.015Z,51.25
2016-09-02T04:23:31.347Z,52.01
2016-09-02T04:24:05.651Z,51.53
2016-09-02T04:24:39.969Z,51.53
2016-09-02T04:25:14.287Z,51.44
2016-09-02T04:25:48.583Z,51.63
2016-09-02T04:26:22.873Z,51.92
2016-09-02T04:26:57.165Z,51.53
2016-09-02T04:27:31.458Z,52.01
2016-09-02T04:28:05.759Z,51.63
2016-09-02T04:28:40.049Z,51.73
2016-09-02T04:29:14.390Z,51.73
2016-09-02T04:29:48.689Z,51.63
2016-09-02T04:30:22.998Z,52.01
2016-09-02T04:30:57.285Z,51.34
2016-09-02T04:31:31.591Z,51.73
2016-09-02T04:32:05.880Z,51.44
2016-09-02T04:32:40.197Z,51.82
2016-09-02T04:33:14.507Z,51.73
2016-09-02T04:33:48.816Z,51.73
2016-09-02T04:34:23.124Z,51.63
2016-09-02T04:34:57.419Z,51.53
2016-09-02T04:35:31.694Z,52.01
2016-09-02T04:36:05.984Z,51.53
2016-09-02T04:36:40.285Z,51.63
2016-09-02T04:37:14.580Z,51.63
2016-09-02T04:37:48.877Z,52.01
2016-09-02T04:38:23.172Z,51.53
2016-09-02T04:38:57.487Z,51.63
2016-09-02T04:39:31.772Z,51.44
2016-09-02T04:40:06.066Z,51.53
2016-09-02T04:40:40.369Z,51.53
2016-09-02T04:41:14.691Z,51.63
2016-09-02T04:41:48.978Z,51.63
2016-09-02T04:42:23.267Z,51.44
2016-09-02T04:42:57.558Z,52.5
2016-09-02T04:43:31.850Z,52.59
2016-09-02T04:44:06.143Z,52.5
2016-09-02T04:44:40.457Z,51.63
2016-09-02T04:45:14.817Z,51.53
2016-09-02T04:45:49.107Z,52.4
2016-09-02T04:46:23.419Z,51.53
2016-09-02T04:46:57.721Z,51.53
2016-09-02T04:47:32.011Z,51.53
2016-09-02T04:48:06.308Z,52.31
2016-09-02T04:48:40.589Z,51.44
2016-09-02T04:49:14.890Z,51.63
2016-09-02T04:49:49.199Z,51.63
2016-09-02T04:50:23.528Z,51.44
2016-09-02T04:50:57.848Z,51.63
2016-09-02T04:51:32.135Z,52.4
2016-09-02T04:52:06.425Z,51.53
2016-09-02T04:52:40.716Z,51.73
2016-09-02T04:53:14.999Z,51.73
2016-09-02T04:53:49.299Z,51.73
2016-09-02T04:54:23.596Z,51.73
2016-09-02T04:54:57.900Z,51.82
2016-09-02T04:55:32.218Z,51.73
2016-09-02T04:56:06.523Z,51.73
2016-09-02T04:56:40.805Z,51.73
2016-09-02T04:57:15.097Z,52.4
2016-09-02T04:57:49.380Z,52.4
2016-09-02T04:58:23.692Z,51.73
2016-09-02T04:58:57.989Z,51.73
2016-09-02T04:59:32.283Z,51.82
2016-09-02T05:00:06.604Z,51.73
2016-09-02T05:00:40.881Z,52.4
2016-09-02T05:01:15.214Z,52.4
2016-09-02T05:01:49.516Z,51.82
2016-09-02T05:02:23.902Z,52.4
2016-09-02T05:02:58.198Z,51.73
2016-09-02T05:03:32.521Z,51.73
2016-09-02T05:04:06.818Z,51.73
2016-09-02T05:04:41.126Z,51.73
2016-09-02T05:05:15.770Z,51.63
2016-09-02T05:05:50.060Z,52.4
2016-09-02T05:06:24.362Z,51.73
2016-09-02T05:06:58.646Z,51.73
2016-09-02T05:07:32.960Z,52.5
2016-09-02T05:08:07.268Z,51.92
2016-09-02T05:08:41.565Z,52.31
2016-09-02T05:09:15.862Z,51.63
2016-09-02T05:09:50.169Z,51.82
2016-09-02T05:10:24.461Z,51.73
2016-09-02T05:10:58.789Z,51.63
2016-09-02T05:11:33.081Z,51.73
2016-09-02T05:12:07.375Z,51.73
2016-09-02T05:12:41.681Z,51.73
2016-09-02T05:13:17.383Z,51.73
2016-09-02T05:13:51.679Z,51.82
2016-09-02T05:14:26.118Z,51.73
2016-09-02T05:15:00.396Z,52.4
2016-09-02T05:15:34.717Z,51.73
2016-09-02T05:16:08.996Z,52.4
2016-09-02T05:16:43.290Z,51.73
2016-09-02T05:17:17.592Z,52.4
2016-09-02T05:17:51.890Z,51.73
2016-09-02T05:18:26.188Z,52.01
2016-09-02T05:19:00.478Z,51.73
2016-09-02T05:19:34.756Z,51.63
2016-09-02T05:20:09.083Z,51.73
2016-09-02T05:20:43.428Z,51.73
2016-09-02T05:21:17.726Z,52.21
2016-09-02T05:21:52.024Z,51.63
2016-09-02T05:22:26.321Z,51.73
2016-09-02T05:23:00.609Z,51.73
2016-09-02T05:23:35.871Z,52.5
2016-09-02T05:24:10.160Z,52.01
2016-09-02T05:24:44.461Z,51.73
2016-09-02T05:25:18.753Z,51.73
2016-09-02T05:25:53.057Z,52.01
2016-09-02T05:26:27.374Z,52.01
2016-09-02T05:27:01.682Z,51.82
2016-09-02T05:27:37.509Z,52.4
2016-09-02T05:28:12.837Z,52.4
2016-09-02T05:28:48.008Z,51.82
2016-09-02T05:29:22.290Z,51.73
2016-09-02T05:29:56.776Z,51.73
2016-09-02T05:30:31.211Z,52.31
2016-09-02T05:31:05.508Z,51.82
2016-09-02T05:31:39.802Z,51.73
2016-09-02T05:32:14.086Z,52.4
2016-09-02T05:32:48.390Z,51.73
2016-09-02T05:33:22.694Z,51.92
2016-09-02T05:33:56.983Z,51.63
2016-09-02T05:34:31.278Z,52.31
2016-09-02T05:35:15.148Z,51.73
2016-09-02T05:35:50.823Z,51.82
2016-09-02T05:36:25.798Z,51.73
2016-09-02T05:37:00.781Z,52.31
2016-09-02T05:37:35.115Z,52.31
2016-09-02T05:38:10.464Z,51.73
2016-09-02T05:38:44.764Z,52.4
2016-09-02T05:39:19.308Z,51.73
2016-09-02T05:39:54.442Z,52.31
2016-09-02T05:40:29.009Z,52.21
2016-09-02T05:41:03.309Z,51.73
2016-09-02T05:41:37.612Z,52.31
2016-09-02T05:42:11.901Z,52.4
2016-09-02T05:42:46.208Z,52.31
2016-09-02T05:43:20.502Z,51.53
2016-09-02T05:43:54.779Z,52.4
2016-09-02T05:44:29.055Z,51.73
2016-09-02T05:45:03.485Z,51.73
2016-09-02T05:45:37.803Z,51.75
2016-09-02T05:46:12.160Z,51.73
2016-09-02T05:46:46.711Z,51.53
2016-09-02T05:47:21.007Z,51.63
2016-09-02T05:47:55.463Z,52.4
2016-09-02T05:48:30.860Z,51.53
2016-09-02T05:49:05.978Z,51.73
2016-09-02T05:49:41.209Z,51.85
2016-09-02T05:50:17.514Z,51.73
2016-09-02T05:50:53.751Z,51.56
2016-09-02T05:51:28.839Z,52.31
2016-09-02T05:52:05.267Z,52.4
2016-09-02T05:52:41.521Z,51.63
2016-09-02T05:53:16.989Z,51.73
2016-09-02T05:53:52.533Z,51.56
2016-09-02T05:54:27.913Z,51.73
2016-09-02T05:55:03.429Z,52.5
2016-09-02T05:55:38.879Z,52.33
2016-09-02T05:56:13.992Z,52.33
2016-09-02T05:56:49.554Z,51.53
2016-09-02T05:57:25.748Z,51.53
2016-09-02T05:58:00.820Z,51.63
2016-09-02T05:58:36.649Z,52.4
2016-09-02T05:59:12.603Z,51.65
2016-09-02T05:59:49.694Z,51.56
2016-09-02T06:00:26.713Z,52.23
2016-09-02T06:01:02.183Z,52.53
2016-09-02T06:01:37.995Z,52.23
2016-09-02T06:02:12.732Z,51.65
2016-09-02T06:02:47.290Z,51.46
2016-09-02T06:03:21.836Z,51.46
2016-09-02T06:03:57.020Z,51.65
2016-09-02T06:04:32.556Z,51.95
2016-09-02T06:05:10.175Z,51.56
2016-09-02T06:05:46.781Z,51.46
2016-09-02T06:06:21.061Z,51.56
2016-09-02T06:06:55.360Z,51.37
2016-09-02T06:07:30.586Z,51.56
2016-09-02T06:08:06.639Z,51.75
2016-09-02T06:08:41.488Z,51.46
2016-09-02T06:09:17.208Z,51.75
2016-09-02T06:09:53.084Z,51.37
2016-09-02T06:10:29.284Z,51.85
2016-09-02T06:11:03.693Z,51.37
2016-09-02T06:11:38.237Z,51.37
2016-09-02T06:12:12.531Z,51.75
2016-09-02T06:12:46.825Z,51.37
2016-09-02T06:13:21.125Z,51.37
2016-09-02T06:13:55.444Z,51.46
2016-09-02T06:14:29.747Z,51.85
2016-09-02T06:15:04.080Z,51.75
2016-09-02T06:15:47.537Z,51.46
2016-09-02T06:16:27.039Z,51.75
2016-09-02T06:17:07.064Z,51.37
2016-09-02T06:17:49.551Z,51.46
2016-09-02T06:18:30.271Z,51.39
2016-09-02T06:19:07.057Z,51.78
2016-09-02T06:19:48.574Z,51.49
2016-09-02T06:20:26.222Z,51.87
2016-09-02T06:21:07.049Z,51.59
2016-09-02T06:21:45.682Z,51.59
2016-09-02T06:22:27.043Z,51.87
2016-09-02T06:23:03.531Z,51.39
2016-09-02T06:23:40.030Z,51.49
2016-09-02T06:24:19.542Z,51.2
2016-09-02T06:24:59.040Z,51.39
2016-09-02T06:25:37.060Z,51.29
2016-09-02T06:26:16.536Z,51.59
2016-09-02T06:26:54.032Z,51.29
2016-09-02T06:27:32.540Z,51.29
2016-09-02T06:28:10.049Z,51.59
2016-09-02T06:28:47.632Z,51.78
2016-09-02T06:29:24.406Z,51.2
2016-09-02T06:30:00.050Z,51.68
2016-09-02T06:30:38.671Z,51.29
2016-09-02T06:31:17.485Z,51.23
2016-09-02T06:31:56.058Z,51.71
2016-09-02T06:32:35.102Z,51.51
2016-09-02T06:33:13.045Z,51.61
2016-09-02T06:33:51.133Z,51.23
2016-09-02T06:34:30.047Z,51.23
2016-09-02T06:35:06.554Z,51.23
2016-09-02T06:35:44.536Z,51.51
2016-09-02T06:36:23.555Z,51.32
2016-09-02T06:37:01.074Z,51.51
2016-09-02T06:37:42.063Z,51.23
2016-09-02T06:38:19.674Z,51.32
2016-09-02T06:38:58.961Z,51.32
2016-09-02T06:39:38.561Z,51.42
2016-09-02T06:40:20.560Z,51.42
2016-09-02T06:41:05.545Z,51.03
2016-09-02T06:41:52.562Z,51.23
2016-09-02T06:42:28.630Z,51.51
2016-09-02T06:43:07.763Z,51.13
2016-09-02T06:43:44.668Z,51.44
2016-09-02T06:44:23.052Z,51.25
2016-09-02T06:44:58.424Z,51.25
2016-09-02T06:45:33.504Z,51.64
2016-09-02T06:46:07.915Z,51.35
2016-09-02T06:46:44.543Z,51.54
2016-09-02T06:47:19.653Z,51.44
2016-09-02T06:47:57.046Z,51.44
2016-09-02T06:48:35.091Z,51.44
2016-09-02T06:49:12.581Z,51.35
2016-09-02T06:49:48.312Z,51.35
2016-09-02T06:50:23.097Z,51.44
2016-09-02T06:50:58.241Z,51.44
2016-09-02T06:51:34.018Z,51.35
2016-09-02T06:52:08.503Z,51.35
2016-09-02T06:52:43.325Z,51.47
2016-09-02T06:53:19.058Z,51.37
2016-09-02T06:53:54.409Z,51.44
2016-09-02T06:54:31.046Z,51.18
2016-09-02T06:55:08.091Z,51.28
2016-09-02T06:55:49.047Z,51.18
2016-09-02T06:56:23.688Z,51.08
2016-09-02T06:56:59.154Z,51.18
2016-09-02T06:57:36.082Z,51.28
2016-09-02T06:58:13.611Z,51.08
2016-09-02T06:58:52.780Z,51.47
2016-09-02T06:59:28.634Z,51.08
2016-09-02T07:00:03.755Z,50.89
2016-09-02T07:00:38.127Z,50.89
2016-09-02T07:01:13.528Z,50.98
2016-09-02T07:01:51.018Z,51.47
2016-09-02T07:02:28.021Z,51.18
2016-09-02T07:03:06.054Z,51.3
2016-09-02T07:03:43.392Z,51.01
2016-09-02T07:04:21.388Z,50.92
2016-09-02T07:04:59.244Z,51.1
2016-09-02T07:05:35.977Z,51.18
2016-09-02T07:06:14.059Z,50.92
2016-09-02T07:06:49.565Z,51.2
2016-09-02T07:07:25.055Z,51.2
2016-09-02T07:07:59.931Z,50.92
2016-09-02T07:08:39.553Z,51.5
2016-09-02T07:09:18.054Z,51.2
2016-09-02T07:09:55.352Z,51.01
2016-09-02T07:10:30.550Z,51.1
2016-09-02T07:11:05.573Z,51.01
2016-09-02T07:11:41.071Z,50.92
2016-09-02T07:12:17.556Z,51.1
2016-09-02T07:12:55.153Z,50.92
2016-09-02T07:13:30.804Z,50.92
2016-09-02T07:14:08.098Z,51.1
2016-09-02T07:14:46.066Z,51.1
2016-09-02T07:15:24.928Z,50.92
2016-09-02T07:16:02.156Z,50.92
2016-09-02T07:16:41.573Z,51.1
2016-09-02T07:18:43.572Z,51.1
2016-09-02T07:19:24.580Z,51.2
2016-09-02T07:20:08.061Z,51.23
2016-09-02T07:20:55.080Z,51.1
2016-09-02T07:21:36.091Z,50.84
2016-09-02T07:22:14.066Z,50.72
2016-09-02T07:22:55.601Z,50.74
2016-09-02T07:23:39.078Z,51.32
2016-09-02T07:24:23.081Z,51.23
2016-09-02T07:25:01.542Z,51.23
2016-09-02T07:25:40.242Z,51.42
2016-09-02T07:26:17.821Z,50.65
2016-09-02T07:26:54.570Z,51.23
2016-09-02T07:27:29.580Z,51.32
2016-09-02T07:28:03.990Z,50.65
2016-09-02T07:28:38.280Z,50.74
2016-09-02T07:29:12.578Z,50.74
2016-09-02T07:29:46.892Z,50.74
2016-09-02T07:30:21.192Z,50.74
2016-09-02T07:30:55.499Z,50.84
2016-09-02T07:31:29.801Z,50.65
2016-09-02T07:32:04.102Z,50.94
2016-09-02T07:32:38.419Z,50.87